Bessemer Information

FAA: EKY - ICAO: KEKY

Bessemer (Airport) Location

State Alabama
County Jefferson
City Bessemer
Bessemer (Airport) is 3 miles southeast of Bessemer, AL.
Latitude 33-18-45.4000N
Longitude 086-55-34.7000W
Elevation 699ft

Bessemer METARs

METAR KEKY 030356Z AUTO 09003KT 10SM CLR 21/14 A3015 RMK AO2 SLP053 T02110144
Altimeter 30.15"
Temperature 21.1°C (70.0°F)
Wind 90° at 3KT
Clouds Skies are clear.
Visibility 10.0mi
Time observed: 2023-10-03T03:56:00Z

Bessemer (Airport) Details

Status Operational
Activation March 1973
Ownership Public
Usage Public
Chart ATLANTA
ATC on-site No
Beacon schedule sunset-sunrise
Beacon color clear green

Bessemer (Airport) Contacts

Owner CITY OF BESSEMER
Owner address 1800 N THIRD AVE, BESSEMER, AL 35020
Owner phone 205-424-4060
Manager TIM WASYLUKA
Manager address 900 MITCHELL FIELD RD, BESSEMER, AL 35022
Manager phone (205) 835-1415

Bessemer Radio Frequencies

Bessemer (Airport) Radio Frequencies

UNICOM 123
Common traffic advisory frequency (CTAF) 123